Terminal Aerodrome Forecast
Issued by NWS Mt. Holly, NJ

Home | Current Version | Previous Version | Text Only | Print | Product List | Glossary On
Versions: 1 2 3 4 5 6 7 8 9 10 11 12 13 14 15 16 17 18 19 20
000
FTUS41 KPHI 302119 AAA
TAFABE
TAF AMD
KABE 302119Z 3021/3118 24005KT P6SM FEW040
      TEMPO 3023/3101 6SM -TSRA BKN040CB
     FM310100 VRB02KT 6SM BR BKN150
     FM310400 00000KT 3SM BR SKC
     FM311100 34003KT 6SM BR SKC
     FM311300 35005KT P6SM FEW050=

USA.gov is the U.S. government's official web portal to all federal, state and local government web resources and services.